Time;durP1;ratioP1;P1;durP2;ratioP2;P2;SDS_P1;SDS_P2;PMS_P1;PMS_P2;Temp;Humidity;BMP_temperature;BMP_pressure;BME280_temperature;BME280_humidity;BME280_pressure;Samples;Min_cycle;Max_cycle;Signal;HPM_P1;HPM_P2
2024/03/18 00:00:17;;;;;;;5.40;0.70;;;;;;;4.70;100.00;100266.38;106187;1259;74692;-55
2024/03/18 00:02:49;;;;;;;4.10;0.50;;;;;;;4.71;100.00;100262.98;106012;1258;67017;-56
2024/03/18 00:05:17;;;;;;;3.50;0.40;;;;;;;4.73;100.00;100262.96;106928;1257;73438;-55
2024/03/18 00:07:45;;;;;;;2.80;1.10;;;;;;;4.77;100.00;100261.84;106343;1258;61744;-55
2024/03/18 00:10:12;;;;;;;6.40;0.60;;;;;;;4.78;100.00;100264.46;106017;1254;60505;-57
2024/03/18 00:12:40;;;;;;;2.50;0.50;;;;;;;4.80;100.00;100263.73;106056;1255;72581;-58
2024/03/18 00:15:09;;;;;;;4.40;0.70;;;;;;;4.83;100.00;100264.75;106044;1253;67181;-56
2024/03/18 00:17:36;;;;;;;3.00;0.50;;;;;;;4.86;100.00;100264.86;106310;1268;71451;-55
2024/03/18 00:20:05;;;;;;;5.60;0.70;;;;;;;4.88;100.00;100262.17;106030;1259;60448;-56
2024/03/18 00:22:32;;;;;;;5.60;1.00;;;;;;;4.89;100.00;100258.95;106068;1258;61532;-56
2024/03/18 00:25:00;;;;;;;5.20;0.70;;;;;;;4.90;100.00;100258.40;106005;1259;74073;-56
2024/03/18 00:27:28;;;;;;;3.80;0.50;;;;;;;4.88;100.00;100255.40;106022;1258;67653;-56
2024/03/18 00:29:55;;;;;;;4.20;0.60;;;;;;;4.84;100.00;100251.20;105946;1256;73216;-56
2024/03/18 00:32:22;;;;;;;3.80;0.60;;;;;;;4.79;100.00;100253.59;105983;1256;60544;-55
2024/03/18 00:34:51;;;;;;;4.90;0.60;;;;;;;4.76;100.00;100253.14;106340;1254;60296;-55
2024/03/18 00:37:18;;;;;;;3.40;0.40;;;;;;;4.74;100.00;100248.91;106014;1259;74499;-55
2024/03/18 00:39:46;;;;;;;2.90;0.40;;;;;;;4.71;100.00;100249.48;106140;1259;65491;-55
2024/03/18 00:42:13;;;;;;;2.30;0.40;;;;;;;4.70;100.00;100249.67;106102;1260;72473;-55
2024/03/18 00:44:40;;;;;;;4.10;0.50;;;;;;;4.65;100.00;100243.71;106106;1259;60482;-55
2024/03/18 00:47:07;;;;;;;1.10;0.40;;;;;;;4.61;100.00;100243.42;106055;1267;61215;-56
2024/03/18 00:49:35;;;;;;;1.50;0.90;;;;;;;4.58;100.00;100239.92;106187;1259;74378;-54
2024/03/18 00:52:02;;;;;;;2.10;0.30;;;;;;;4.55;100.00;100241.20;105973;1253;66932;-55
2024/03/18 00:54:29;;;;;;;1.80;0.40;;;;;;;4.53;100.00;100239.82;106116;1259;71670;-54
2024/03/18 00:56:57;;;;;;;4.20;0.40;;;;;;;4.48;100.00;100246.84;106145;1259;61390;-54
2024/03/18 00:59:24;;;;;;;1.90;0.50;;;;;;;4.41;100.00;100238.23;106064;1254;61253;-55
2024/03/18 01:01:51;;;;;;;5.30;0.40;;;;;;;4.37;100.00;100238.64;106150;1258;74305;-56
2024/03/18 01:04:19;;;;;;;2.60;0.40;;;;;;;4.34;100.00;100237.80;106019;1261;67499;-55
2024/03/18 01:06:46;;;;;;;1.50;0.40;;;;;;;4.31;100.00;100238.05;106036;1259;73197;-56
2024/03/18 01:09:13;;;;;;;1.80;0.50;;;;;;;4.25;100.00;100233.33;106133;1257;60458;-56
2024/03/18 01:11:41;;;;;;;5.70;0.40;;;;;;;4.23;100.00;100236.75;106153;1259;60390;-56
2024/03/18 01:14:08;;;;;;;2.00;0.50;;;;;;;4.24;100.00;100229.98;106036;1261;72407;-55
2024/03/18 01:16:35;;;;;;;2.30;0.40;;;;;;;4.25;100.00;100230.15;106008;1257;67095;-55
2024/03/18 01:19:02;;;;;;;1.80;0.40;;;;;;;4.25;100.00;100228.55;106005;1268;73313;-55
2024/03/18 01:21:29;;;;;;;3.10;0.50;;;;;;;4.28;100.00;100226.88;106046;1259;61492;-54
2024/03/18 01:23:56;;;;;;;2.60;0.50;;;;;;;4.32;100.00;100221.33;106033;1259;60521;-55
2024/03/18 01:26:24;;;;;;;4.80;0.60;;;;;;;4.34;100.00;100222.17;106128;1258;74238;-56
2024/03/18 01:28:51;;;;;;;2.70;0.40;;;;;;;4.34;100.00;100223.27;106069;1260;67376;-55
2024/03/18 01:31:18;;;;;;;2.60;0.40;;;;;;;4.33;100.00;100224.15;105990;1259;71477;-55
2024/03/18 01:33:45;;;;;;;2.50;0.30;;;;;;;4.32;100.00;100222.05;105990;1258;61109;-55
2024/03/18 01:36:12;;;;;;;1.70;0.70;;;;;;;4.31;100.00;100225.08;105955;1259;60547;-55
2024/03/18 01:38:39;;;;;;;3.20;0.50;;;;;;;4.29;100.00;100221.02;106028;1259;73848;-55
2024/03/18 01:41:06;;;;;;;1.60;0.40;;;;;;;4.25;100.00;100219.48;106163;1256;65514;-56
2024/03/18 01:43:37;;;;;;;4.40;0.60;;;;;;;4.22;100.00;100218.27;106165;1259;72109;-56
2024/03/18 01:46:14;;;;;;;;;;;;;;;4.21;100.00;100216.86;106423;1264;60971;-56
2024/03/18 01:48:42;;;;;;;;;;;;;;;4.23;100.00;100215.26;106087;1258;61278;-56
2024/03/18 01:51:09;;;;;;;;;;;;;;;4.23;100.00;100212.23;106236;1260;72655;-56
2024/03/18 01:53:36;;;;;;;;;;;;;;;4.23;100.00;100213.30;106034;1259;67290;-55
2024/03/18 01:56:04;;;;;;;;;;;;;;;4.22;100.00;100217.23;105990;1261;71556;-55
2024/03/18 01:58:31;;;;;;;;;;;;;;;4.24;100.00;100215.25;106643;1254;61299;-55
2024/03/18 02:00:58;;;;;;;;;;;;;;;4.25;100.00;100214.14;106148;1257;60423;-55
2024/03/18 02:03:26;;;;;;;;;;;;;;;4.28;100.00;100216.94;106130;1266;73903;-55
2024/03/18 02:05:53;;;;;;;;;;;;;;;4.29;100.00;100213.90;106077;1254;65871;-56
2024/03/18 02:08:20;;;;;;;;;;;;;;;4.30;100.00;100211.05;106151;1270;72662;-56
2024/03/18 02:10:47;;;;;;;;;;;;;;;4.29;100.00;100211.07;106092;1257;61334;-55
2024/03/18 02:13:15;;;;;;;;;;;;;;;4.26;100.00;100212.70;106148;1260;61193;-56
2024/03/18 02:15:42;;;;;;;;;;;;;;;4.22;100.00;100206.92;106081;1269;74628;-56
2024/03/18 02:18:10;;;;;;;;;;;;;;;4.18;100.00;100208.58;106250;1269;65775;-56
2024/03/18 02:20:37;;;;;;;;;;;;;;;4.13;100.00;100204.56;106090;1254;71439;-55
2024/03/18 02:23:04;;;;;;;;;;;;;;;4.08;100.00;100206.95;106096;1266;62115;-56
2024/03/18 02:25:31;;;;;;;;;;;;;;;4.03;100.00;100202.22;106088;1267;61289;-54
2024/03/18 02:27:58;;;;;;;;;;;;;;;3.98;100.00;100201.77;106130;1261;73459;-54
2024/03/18 02:30:25;;;;;;;;;;;;;;;3.94;100.00;100199.15;106151;1267;65105;-56
2024/03/18 02:32:52;;;;;;;;;;;;;;;3.90;100.00;100198.70;106132;1261;73136;-56
2024/03/18 02:35:20;;;;;;;;;;;;;;;3.87;100.00;100199.44;106177;1267;61471;-58
2024/03/18 02:37:47;;;;;;;;;;;;;;;3.84;100.00;100201.23;106189;1267;61419;-56
2024/03/18 02:40:14;;;;;;;;;;;;;;;3.82;100.00;100205.55;106098;1257;73792;-57
2024/03/18 02:42:41;;;;;;;;;;;;;;;3.79;100.00;100201.85;106066;1269;67209;-57
2024/03/18 02:45:09;;;;;;;;;;;;;;;3.76;100.00;100198.34;106078;1258;72800;-57
2024/03/18 02:47:37;;;;;;;;;;;;;;;3.74;100.00;100194.09;106578;1265;62313;-57
2024/03/18 02:50:07;;;;;;;;;;;;;;;3.73;100.00;100193.78;106014;1268;62142;-57
2024/03/18 02:52:36;;;;;;;;;;;;;;;3.75;100.00;100194.09;106057;1267;74859;-57
2024/03/18 02:55:03;;;;;;;;;;;;;;;3.78;100.00;100196.89;105999;1258;65510;-57
2024/03/18 02:57:30;;;;;;;;;;;;;;;3.82;100.00;100197.20;106263;1257;71764;-56
2024/03/18 02:59:57;;;;;;;;;;;;;;;3.87;100.00;100195.71;106238;1257;61229;-56
2024/03/18 03:02:24;;;;;;;;;;;;;;;3.91;100.00;100198.31;106332;1254;61554;-56
2024/03/18 03:04:51;;;;;;;;;;;;;;;3.96;100.00;100196.11;106254;1251;74705;-55
2024/03/18 03:07:18;;;;;;;;;;;;;;;4.00;100.00;100198.00;106259;1256;65842;-57
2024/03/18 03:09:46;;;;;;;;;;;;;;;4.04;100.00;100194.91;106233;1263;71257;-57
2024/03/18 03:12:13;;;;;;;;;;;;;;;4.08;100.00;100190.59;106375;1251;61896;-57
2024/03/18 03:14:43;;;;;;;;;;;;;;;4.13;100.00;100189.11;106205;1257;61122;-56
2024/03/18 03:17:10;;;;;;;;;;;;;;;4.17;100.00;100188.14;106264;1257;73740;-57
2024/03/18 03:19:38;;;;;;;;;;;;;;;4.20;100.00;100189.17;106251;1257;66869;-57
2024/03/18 03:22:05;;;;;;;;;;;;;;;4.22;100.00;100187.55;106267;1251;72843;-57
2024/03/18 03:24:32;;;;;;;;;;;;;;;4.24;100.00;100189.13;106219;1251;61451;-56
2024/03/18 03:26:59;;;;;;;;;;;;;;;4.26;100.00;100190.33;106211;1257;62827;-57
2024/03/18 03:29:26;;;;;;;;;;;;;;;4.26;100.00;100186.59;106188;1257;74692;-57
2024/03/18 03:31:53;;;;;;;;;;;;;;;4.25;100.00;100182.01;106231;1257;65498;-57
2024/03/18 03:34:20;;;;;;;;;;;;;;;4.24;100.00;100179.71;106227;1251;72692;-57
2024/03/18 03:36:47;;;;;;;;;;;;;;;4.22;100.00;100180.98;106265;1260;62121;-56
2024/03/18 03:39:14;;;;;;;;;;;;;;;4.20;100.00;100183.48;106292;1257;61183;-56
2024/03/18 03:41:42;;;;;;;;;;;;;;;4.16;100.00;100175.38;106257;1257;74928;-57
2024/03/18 03:44:09;;;;;;;;;;;;;;;4.13;100.00;100174.00;106222;1256;67097;-56
2024/03/18 03:46:36;;;;;;;;;;;;;;;4.09;100.00;100174.41;106235;1257;71391;-56
2024/03/18 03:49:03;;;;;;;;;;;;;;;4.06;100.00;100175.71;106260;1251;62076;-57
2024/03/18 03:51:30;;;;;;;;;;;;;;;4.01;100.00;100177.20;106297;1256;61306;-57
2024/03/18 03:53:57;;;;;;;;;;;;;;;3.97;100.00;100173.91;106186;1257;73465;-57
2024/03/18 03:56:25;;;;;;;;;;;;;;;3.92;100.00;100176.80;106202;1257;66918;-56
2024/03/18 03:58:52;;;;;;;;;;;;;;;3.88;100.00;100171.73;106258;1258;71187;-56
2024/03/18 04:01:19;;;;;;;;;;;;;;;3.85;100.00;100169.64;106644;1258;61301;-57
2024/03/18 04:03:46;;;;;;;;;;;;;;;3.81;100.00;100169.70;106163;1258;61340;-57
2024/03/18 04:06:13;;;;;;;;;;;;;;;3.74;100.00;100169.08;106128;1254;73874;-56
2024/03/18 04:08:40;;;;;;;;;;;;;;;3.69;100.00;100166.48;106149;1257;66818;-58
2024/03/18 04:11:07;;;;;;;;;;;;;;;3.64;100.00;100169.22;106203;1258;72522;-57
2024/03/18 04:13:34;;;;;;;;;;;;;;;3.64;100.00;100169.95;106195;1254;61468;-58
2024/03/18 04:16:02;;;;;;;;;;;;;;;3.64;100.00;100166.92;106255;1256;61234;-58
2024/03/18 04:18:29;;;;;;;;;;;;;;;3.67;100.00;100170.93;106211;1251;75042;-58
2024/03/18 04:20:59;;;;;;;;;;;;;;;3.71;100.00;100177.66;106219;1257;67106;-58
2024/03/18 04:23:32;;;;;;;;;;;;;;;3.76;100.00;100175.44;106228;1257;71888;-58
2024/03/18 04:26:05;;;;;;;;;;;;;;;3.83;100.00;100180.14;106227;1251;62121;-57
2024/03/18 04:28:33;;;;;;;;;;;;;;;3.89;100.00;100180.60;106299;1254;61224;-56
2024/03/18 04:31:05;;;;;;;;;;;;;;;3.95;100.00;100184.23;109323;1251;74679;-56
2024/03/18 04:33:33;;;;;;;;;;;;;;;4.00;100.00;100183.98;109107;1251;67108;-56
2024/03/18 04:36:01;;;;;;;;;;;;;;;4.04;100.00;100185.52;108837;1254;72726;-56
2024/03/18 04:38:28;;;;;;;;;;;;;;;4.09;100.00;100187.92;106317;1254;62687;-55
2024/03/18 04:40:56;;;;;;;;;;;;;;;4.14;100.00;100187.49;106259;1251;61311;-57
2024/03/18 04:43:23;;;;;;;;;;;;;;;4.17;100.00;100185.66;109226;1251;73337;-56
2024/03/18 04:45:52;;;;;;;;;;;;;;;4.21;100.00;100182.05;109314;1251;64843;-56
2024/03/18 04:48:19;;;;;;;;;;;;;;;4.24;100.00;100182.73;106381;1257;75138;-55
2024/03/18 04:50:46;;;;;;;;;;;;;;;4.26;100.00;100181.61;106290;1253;62212;-56
2024/03/18 04:53:13;;;;;;;;;;;;;;;4.28;100.00;100182.46;106323;1256;62203;-55
2024/03/18 04:55:42;;;;;;;;;;;;;;;4.28;100.00;100184.59;106308;1256;74994;-55
2024/03/18 04:58:09;;;;;;;;;;;;;;;4.26;100.00;100188.02;106518;1254;66877;-55
2024/03/18 05:00:36;;;;;;;;;;;;;;;4.24;100.00;100185.20;106200;1261;71487;-54
2024/03/18 05:03:03;;;;;;;;;;;;;;;4.21;100.00;100185.95;106114;1257;61345;-55
2024/03/18 05:05:31;;;;;;;;;;;;;;;4.19;100.00;100194.34;106146;1253;60206;-56
2024/03/18 05:07:58;;;;;;;;;;;;;;;4.16;100.00;100196.17;106235;1258;75060;-56
2024/03/18 05:10:27;;;;;;;;;;;;;;;4.12;100.00;100194.80;106158;1260;65779;-58
2024/03/18 05:12:59;;;;;;;;;;;;;;;4.09;100.00;100197.32;106063;1254;71668;-54
2024/03/18 05:15:26;;;;;;;;;;;;;;;4.06;100.00;100195.62;106110;1254;61282;-54
2024/03/18 05:17:53;;;;;;;;;;;;;;;4.04;100.00;100195.80;106192;1254;61324;-54
2024/03/18 05:20:20;;;;;;;;;;;;;;;4.02;100.00;100194.23;106108;1272;75117;-54
2024/03/18 05:22:47;;;;;;;;;;;;;;;4.01;100.00;100194.96;106128;1258;68585;-57
2024/03/18 05:25:15;;;;;;;;;;;;;;;4.00;100.00;100198.88;106068;1270;72627;-57
2024/03/18 05:27:42;;;;;;;;;;;;;;;4.00;100.00;100204.40;106126;1254;61433;-54
2024/03/18 05:30:11;;;;;;;;;;;;;;;4.00;100.00;100204.56;106121;1254;62108;-53
2024/03/18 05:32:38;;;;;;;;;;;;;;;4.01;100.00;100205.97;106270;1257;73941;-55
2024/03/18 05:35:06;;;;;;;;;;;;;;;4.03;100.00;100204.52;106080;1257;66083;-56
2024/03/18 05:37:33;;;;;;;;;;;;;;;4.08;100.00;100208.02;106210;1257;74338;-55
2024/03/18 05:40:03;;;;;;;;;;;;;;;4.14;100.00;100205.79;106057;1253;61474;-55
2024/03/18 05:42:31;;;;;;;;;;;;;;;4.23;100.00;100206.19;106040;1260;61272;-57
2024/03/18 05:44:59;;;;;;;;;;;;;;;4.30;100.00;100208.91;106113;1255;75299;-55
2024/03/18 05:47:26;;;;;;;;;;;;;;;4.39;100.00;100208.96;106261;1254;65704;-55
2024/03/18 05:49:54;;;;;;;;;;;;;;;4.45;100.00;100210.98;106112;1257;72132;-56
2024/03/18 05:52:21;;;;;;;;;;;;;;;4.54;100.00;100203.73;106202;1253;62006;-55
2024/03/18 05:54:48;;;;;;;;;;;;;;;4.63;100.00;100201.45;106229;1257;62242;-55
2024/03/18 05:57:15;;;;;;;;;;;;;;;4.70;100.00;100201.66;106252;1261;73445;-55
2024/03/18 05:59:42;;;;;;;;;;;;;;;4.77;100.00;100202.27;106348;1257;65498;-57
2024/03/18 06:02:10;;;;;;;;;;;;;;;4.83;100.00;100201.10;106271;1257;71280;-54
2024/03/18 06:04:41;;;;;;;;;;;;;;;4.86;100.00;100201.74;109030;1253;61841;-55
2024/03/18 06:07:08;;;;;;;;;;;;;;;4.89;100.00;100201.52;106189;1257;61301;-57
2024/03/18 06:09:35;;;;;;;;;;;;;;;4.93;100.00;100200.36;106096;1258;75216;-54
2024/03/18 06:12:02;;;;;;;;;;;;;;;4.99;100.00;100201.87;106146;1257;67024;-53
2024/03/18 06:14:29;;;;;;;;;;;;;;;5.03;100.00;100199.66;106188;1254;73417;-53
2024/03/18 06:16:56;;;;;;;;;;;;;;;5.08;100.00;100205.24;106103;1257;61873;-57
2024/03/18 06:19:27;;;;;;;;;;;;;;;5.12;100.00;100204.98;106112;1260;61374;-56
2024/03/18 06:21:59;;;;;;;;;;;;;;;5.16;100.00;100206.70;106109;1253;75178;-54
2024/03/18 06:25:51;;;;;;;;;;;;;;;5.16;100.00;100202.98;106029;1265;65960;-54
2024/03/18 06:27:13;;;;;;;;;;;;;;;5.17;100.00;100197.79;106287;1257;73894;-55
2024/03/18 06:29:40;;;;;;;;;;;;;;;5.18;100.00;100199.72;106121;1257;61258;-54
2024/03/18 06:32:07;;;;;;;;;;;;;;;5.19;100.00;100200.24;106282;1257;61131;-55
2024/03/18 06:34:34;;;;;;;;;;;;;;;5.18;100.00;100200.63;106103;1257;74730;-56
2024/03/18 06:37:01;;;;;;;;;;;;;;;5.17;100.00;100199.73;106081;1257;65690;-54
2024/03/18 06:39:28;;;;;;;;;;;;;;;5.14;100.00;100203.89;106066;1254;71801;-55
2024/03/18 06:41:58;;;;;;;;;;;;;;;5.11;100.00;100200.59;106062;1254;62080;-54
2024/03/18 06:44:26;;;;;;;;;;;;;;;5.07;100.00;100199.23;106032;1254;61276;-55
2024/03/18 06:46:53;;;;;;;;;;;;;;;5.03;100.00;100198.58;106087;1254;73908;-57
2024/03/18 06:49:20;;;;;;;;;;;;;;;4.99;100.00;100193.86;106122;1262;66854;-55
2024/03/18 06:51:48;;;;;;;;;;;;;;;4.96;100.00;100195.50;106040;1257;71510;-55
2024/03/18 06:54:15;;;;;;;;;;;;;;;4.94;100.00;100194.83;106674;1253;61601;-54
2024/03/18 06:56:42;;;;;;;;;;;;;;;4.92;100.00;100192.02;106207;1256;61527;-56
2024/03/18 06:59:09;;;;;;;;;;;;;;;4.90;100.00;100190.29;106123;1255;77010;-55
2024/03/18 07:01:36;;;;;;;;;;;;;;;4.89;100.00;100188.34;106268;1267;67047;-57
2024/03/18 07:04:05;;;;;;;;;;;;;;;4.89;100.00;100186.92;106339;1257;71477;-55
2024/03/18 07:06:33;;;;;;;;;;;;;;;4.91;100.00;100187.61;106273;1256;61301;-55
2024/03/18 07:09:00;;;;;;;;;;;;;;;4.94;100.00;100189.86;106317;1256;61221;-55
2024/03/18 07:11:27;;;;;;;;;;;;;;;5.00;100.00;100190.46;106274;1253;74735;-54
2024/03/18 07:13:55;;;;;;;;;;;;;;;5.06;100.00;100192.66;106248;1254;66358;-57
2024/03/18 07:16:22;;;;;;;;;;;;;;;5.12;100.00;100193.61;106206;1252;73052;-55
2024/03/18 07:18:49;;;;;;;;;;;;;;;5.17;100.00;100196.20;106196;1258;62820;-55
2024/03/18 07:21:16;;;;;;;;;;;;;;;5.23;100.00;100194.45;106364;1269;63947;-57
2024/03/18 07:23:43;;;;;;;;;;;;;;;5.28;100.00;100194.71;106146;1256;75138;-57
2024/03/18 07:26:10;;;;;;;;;;;;;;;5.34;100.00;100193.00;106166;1253;66921;-57
2024/03/18 07:28:37;;;;;;;;;;;;;;;5.38;100.00;100192.20;106162;1251;73105;-57
2024/03/18 07:31:04;;;;;;;;;;;;;;;5.44;100.00;100192.81;106220;1257;61679;-57
2024/03/18 07:33:32;;;;;;;;;;;;;;;5.49;100.00;100192.16;106223;1257;61391;-56
2024/03/18 07:35:59;;;;;;;;;;;;;;;5.53;100.00;100191.00;106120;1254;73713;-55
2024/03/18 07:38:27;;;;;;;;;;;;;;;5.56;100.00;100194.14;106188;1256;69769;-57
2024/03/18 07:40:54;;;;;;;;;;;;;;;5.59;100.00;100195.52;109353;1251;72126;-57
2024/03/18 07:43:22;;;;;;;;;;;;;;;5.60;100.00;100194.79;109144;1251;58982;-57
2024/03/18 07:45:49;;;;;;;;;;;;;;;5.62;100.00;100193.46;107201;1256;61387;-56
2024/03/18 07:48:16;;;;;;;;;;;;;;;5.61;100.00;100191.88;106683;1256;73462;-56
2024/03/18 07:50:43;;;;;;;;;;;;;;;5.59;100.00;100192.30;106222;1251;65830;-56
2024/03/18 07:53:11;;;;;;;;;;;;;;;5.58;100.00;100194.64;106188;1257;72961;-56
2024/03/18 07:55:38;;;;;;;;;;;;;;;5.58;100.00;100201.94;106142;1258;60780;-56
2024/03/18 07:58:05;;;;;;;;;;;;;;;5.56;100.00;100200.55;106146;1251;61276;-57
2024/03/18 08:00:33;;;;;;;;;;;;;;;5.55;100.00;100197.19;106657;1255;72674;-56
2024/03/18 08:03:00;;;;;;;;;;;;;;;5.56;100.00;100193.42;106090;1257;67069;-56
2024/03/18 08:05:27;;;;;;;;;;;;;;;5.59;100.00;100187.68;106008;1256;71110;-56
2024/03/18 08:07:57;;;;;;;;;;;;;;;5.64;100.00;100187.73;106103;1254;61331;-57
2024/03/18 08:10:25;;;;;;;;;;;;;;;5.70;100.00;100190.45;106224;1256;61234;-56
2024/03/18 08:12:52;;;;;;;;;;;;;;;5.76;100.00;100188.92;106077;1254;73493;-57
2024/03/18 08:15:19;;;;;;;;;;;;;;;5.82;100.00;100186.29;106120;1254;67492;-54
2024/03/18 08:17:46;;;;;;;;;;;;;;;5.89;100.00;100191.14;106181;1257;74814;-55
2024/03/18 08:20:13;;;;;;;;;;;;;;;5.97;100.00;100193.65;106084;1257;61176;-55
2024/03/18 08:22:40;;;;;;;;;;;;;;;6.03;100.00;100191.71;106027;1253;61145;-56
2024/03/18 08:25:10;;;;;;;;;;;;;;;6.09;100.00;100193.55;106131;1257;74731;-54
2024/03/18 08:27:38;;;;;;;;;;;;;;;6.13;100.00;100192.39;105978;1257;67199;-55
2024/03/18 08:30:05;;;;;;;;;;;;;;;6.17;100.00;100189.98;106220;1257;71473;-55
2024/03/18 08:32:33;;;;;;;;;;;;;;;6.19;100.00;100188.52;106125;1254;61353;-56
2024/03/18 08:35:00;;;;;;;;;;;;;;;6.20;100.00;100193.48;106197;1258;61312;-55
2024/03/18 08:37:28;;;;;;;;;;;;;;;6.18;100.00;100190.49;106193;1257;72677;-56
2024/03/18 08:39:56;;;;;;;;;;;;;;;6.13;100.00;100191.66;106110;1266;67247;-56
2024/03/18 08:42:23;;;;;;;;;;;;;;;6.11;100.00;100192.45;106251;1253;70580;-56
2024/03/18 08:44:51;;;;;;;;;;;;;;;6.10;100.00;100194.77;105975;1258;61865;-56
2024/03/18 08:47:21;;;;;;;;;;;;;;;6.09;100.00;100192.48;106124;1257;60078;-56
2024/03/18 08:49:48;;;;;;;;;;;;;;;6.06;100.00;100192.71;106033;1253;73864;-57
2024/03/18 08:52:15;;;;;;;;;;;;;;;6.02;100.00;100195.85;106046;1257;66123;-56
2024/03/18 08:54:42;;;;;;;;;;;;;;;5.96;100.00;100189.73;106064;1257;72721;-56
2024/03/18 08:57:09;;;;;;;;;;;;;;;5.95;100.00;100193.67;106162;1263;61683;-55
2024/03/18 08:59:37;;;;;;;;;;;;;;;5.98;100.00;100193.97;106123;1257;62080;-55
2024/03/18 09:02:04;;;;;;;;;;;;;;;5.99;100.00;100196.60;106108;1258;74763;-56
2024/03/18 09:04:31;;;;;;;;;;;;;;;6.02;100.00;100197.25;106128;1252;65813;-55
2024/03/18 09:06:58;;;;;;;;;;;;;;;6.07;100.00;100194.11;106112;1253;71466;-55
2024/03/18 09:09:27;;;;;;;;;;;;;;;6.08;100.00;100196.77;106051;1257;62202;-55
2024/03/18 09:11:54;;;;;;;;;;;;;;;6.13;100.00;100195.41;106101;1253;61294;-54
2024/03/18 09:14:22;;;;;;;;;;;;;;;6.16;100.00;100193.91;106054;1257;74783;-55
2024/03/18 09:16:50;;;;;;;;;;;;;;;6.18;100.00;100188.34;106074;1259;67719;-55
2024/03/18 09:19:17;;;;;;;;;;;;;;;6.19;100.00;100188.14;106033;1253;73120;-56
2024/03/18 09:21:44;;;;;;;;;;;;;;;6.18;100.00;100187.80;106081;1256;61255;-55
2024/03/18 09:24:11;;;;;;;;;;;;;;;6.15;100.00;100188.95;106107;1257;61151;-57
2024/03/18 09:26:38;;;;;;;;;;;;;;;6.09;100.00;100188.21;106119;1253;73827;-55
2024/03/18 09:29:05;;;;;;;;;;;;;;;6.00;100.00;100188.56;106155;1254;67054;-55
2024/03/18 09:31:34;;;;;;;;;;;;;;;5.91;100.00;100184.16;106099;1253;71772;-55
2024/03/18 09:34:01;;;;;;;;;;;;;;;5.82;100.00;100181.48;106094;1257;61385;-56
2024/03/18 09:36:28;;;;;;;;;;;;;;;5.76;100.00;100181.09;106225;1257;60204;-56
2024/03/18 09:38:56;;;;;;;;;;;;;;;5.69;100.00;100177.48;106095;1259;73474;-56
2024/03/18 09:41:23;;;;;;;;;;;;;;;5.60;100.00;100177.48;106046;1257;65891;-56
2024/03/18 09:43:50;;;;;;;;;;;;;;;5.53;100.00;100170.20;106154;1258;72682;-55
2024/03/18 09:46:17;;;;;;;;;;;;;;;5.49;100.00;100172.77;106070;1266;61849;-55
2024/03/18 09:48:45;;;;;;;;;;;;;;;5.44;100.00;100169.83;106077;1258;62129;-56
2024/03/18 09:51:16;;;;;;;;;;;;;;;5.42;100.00;100169.17;108117;1257;72471;-55
2024/03/18 09:53:43;;;;;;;;;;;;;;;5.43;100.00;100167.02;106062;1257;67510;-56
2024/03/18 09:56:11;;;;;;;;;;;;;;;5.44;100.00;100169.30;106043;1253;70974;-56
2024/03/18 09:58:39;;;;;;;;;;;;;;;5.48;100.00;100168.14;106096;1257;61770;-57
2024/03/18 10:01:06;;;;;;;;;;;;;;;5.51;100.00;100166.85;106408;1257;61282;-56
2024/03/18 10:03:33;;;;;;;;;;;;;;;5.54;100.00;100166.58;106036;1257;75241;-56
2024/03/18 10:06:01;;;;;;;;;;;;;;;5.56;100.00;100164.59;106074;1253;67572;-56
2024/03/18 10:08:31;;;;;;;;;;;;;;;5.55;100.00;100167.98;109166;1252;72830;-56
2024/03/18 10:10:58;;;;;;;;;;;;;;;5.48;100.00;100169.73;109146;1252;59568;-57
2024/03/18 10:13:25;;;;;;;;;;;;;;;5.39;100.00;100165.32;106621;1253;61389;-58
2024/03/18 10:18:11;;;;;;;2.10;0.80;;;;;;;5.22;100.00;100206.39;102577;1305;600525;-58
2024/03/18 10:20:39;;;;;;;2.00;0.80;;;;;;;5.12;100.00;100219.05;105120;1274;61196;-57
2024/03/18 10:23:10;;;;;;;3.30;0.70;;;;;;;5.06;100.00;100213.12;105191;1268;59709;-57
2024/03/18 10:25:37;;;;;;;1.60;0.70;;;;;;;5.01;100.00;100204.50;108160;1266;73554;-57
2024/03/18 10:28:06;;;;;;;5.00;0.60;;;;;;;5.00;100.00;100200.80;108274;1267;65962;-57
2024/03/18 10:30:34;;;;;;;2.00;0.60;;;;;;;4.98;100.00;100197.08;105284;1273;72787;-57
2024/03/18 10:33:03;;;;;;;1.80;0.60;;;;;;;4.97;100.00;100192.48;108175;1266;61258;-57
2024/03/18 10:35:32;;;;;;;1.40;0.60;;;;;;;4.94;100.00;100189.48;108353;1266;60079;-57
2024/03/18 10:38:00;;;;;;;1.80;0.60;;;;;;;4.95;100.00;100189.84;108365;1266;73350;-57
2024/03/18 10:40:37;;;;;;;2.80;0.70;;;;;;;4.97;100.00;100185.89;108025;1264;65639;-58
2024/03/18 10:43:08;;;;;;;1.10;0.60;;;;;;;4.99;100.00;100184.98;105274;1271;72764;-57
2024/03/18 10:45:36;;;;;;;1.90;0.50;;;;;;;4.98;100.00;100182.50;105276;1267;59727;-55
2024/03/18 10:48:05;;;;;;;4.10;0.60;;;;;;;4.99;100.00;100178.22;105306;1264;60524;-56
2024/03/18 10:50:33;;;;;;;2.10;0.60;;;;;;;4.96;100.00;100173.64;105907;1270;74520;-59
2024/03/18 10:53:04;;;;;;;2.50;0.70;;;;;;;4.85;100.00;100169.94;105301;1269;67945;-60
2024/03/18 10:55:32;;;;;;;1.70;0.60;;;;;;;4.76;100.00;100168.67;105348;1271;72789;-59
2024/03/18 10:58:01;;;;;;;2.30;0.50;;;;;;;4.71;100.00;100169.66;105209;1267;61088;-59
2024/03/18 11:00:28;;;;;;;1.10;0.60;;;;;;;4.66;100.00;100165.84;105918;1267;60538;-59
2024/03/18 11:03:00;;;;;;;2.20;0.50;;;;;;;4.66;100.00;100161.59;105410;1265;73730;-59
2024/03/18 11:05:29;;;;;;;0.70;0.50;;;;;;;4.68;100.00;100160.66;105482;1270;66053;-59
2024/03/18 11:08:01;;;;;;;1.20;0.40;;;;;;;4.68;100.00;100157.27;106082;1258;72528;-59
2024/03/18 11:10:33;;;;;;;2.60;0.50;;;;;;;4.68;100.00;100153.54;105787;1257;61807;-58
2024/03/18 11:13:11;;;;;;;2.60;0.50;;;;;;;4.69;100.00;100154.75;105779;1263;60495;-59
2024/03/18 11:15:39;;;;;;;1.90;0.50;;;;;;;4.73;100.00;100152.73;106186;1260;72663;-59
2024/03/18 11:18:07;;;;;;;2.50;0.50;;;;;;;4.73;100.00;100152.91;105849;1264;66037;-57
2024/03/18 11:20:46;;;;;;;2.10;0.40;;;;;;;4.74;100.00;100149.89;105833;1271;72138;-59
2024/03/18 11:23:17;;;;;;;0.90;0.50;;;;;;;4.73;100.00;100146.16;105850;1260;60446;-58
2024/03/18 11:25:44;;;;;;;1.20;0.50;;;;;;;4.71;100.00;100145.83;105800;1261;60414;-59
2024/03/18 11:28:11;;;;;;;2.00;0.50;;;;;;;4.66;100.00;100140.25;106133;1262;73899;-58
2024/03/18 11:30:39;;;;;;;0.70;0.50;;;;;;;4.60;100.00;100138.21;105849;1262;67170;-59
2024/03/18 11:33:08;;;;;;;1.10;0.50;;;;;;;4.53;100.00;100135.66;105907;1264;71885;-58
2024/03/18 11:35:42;;;;;;;1.00;0.50;;;;;;;4.50;100.00;100129.86;105877;1261;60400;-59
2024/03/18 11:38:11;;;;;;;2.00;0.60;;;;;;;4.49;100.00;100130.42;105953;1259;60308;-59
2024/03/18 11:40:39;;;;;;;0.60;0.50;;;;;;;4.49;100.00;100125.96;106077;1257;72920;-60
2024/03/18 11:43:07;;;;;;;2.10;0.50;;;;;;;4.53;100.00;100125.37;105741;1264;67428;-61
2024/03/18 11:45:34;;;;;;;3.90;0.70;;;;;;;4.59;100.00;100127.58;105735;1259;72738;-59
2024/03/18 11:48:06;;;;;;;1.50;0.60;;;;;;;4.63;100.00;100124.48;105692;1262;61771;-60
2024/03/18 11:50:35;;;;;;;1.60;0.70;;;;;;;4.64;100.00;100123.55;106130;1262;60512;-59
2024/03/18 11:53:03;;;;;;;3.30;0.60;;;;;;;4.62;100.00;100124.84;105927;1262;74798;-59
2024/03/18 11:55:37;;;;;;;1.20;0.70;;;;;;;4.59;100.00;100127.23;106490;1259;67089;-59
2024/03/18 11:58:05;;;;;;;2.50;0.80;;;;;;;4.59;100.00;100125.08;105769;1263;72732;-59
2024/03/18 12:00:33;;;;;;;1.20;0.80;;;;;;;4.60;100.00;100125.07;105860;1263;62869;-56
2024/03/18 12:03:02;;;;;;;2.60;0.80;;;;;;;4.59;100.00;100124.58;106232;1262;61192;-60
2024/03/18 12:05:29;;;;;;;0.80;0.60;;;;;;;4.57;100.00;100121.21;106320;1258;74424;-59
2024/03/18 12:07:56;;;;;;;1.00;0.50;;;;;;;4.53;100.00;100120.02;105910;1261;65724;-60